sensor_id;sensor_type;location;lat;lon;timestamp;P1;durP1;ratioP1;P2;durP2;ratioP2
38717;SDS011;24468;52.128;9.278;2023-04-25T00:00:43;9.80;;;4.22;;
38717;SDS011;24468;52.128;9.278;2023-04-25T00:03:09;12.10;;;4.82;;
38717;SDS011;24468;52.128;9.278;2023-04-25T00:05:34;12.63;;;5.75;;
38717;SDS011;24468;52.128;9.278;2023-04-25T00:08:02;9.43;;;4.32;;
38717;SDS011;24468;52.128;9.278;2023-04-25T00:10:28;12.93;;;4.95;;
38717;SDS011;24468;52.128;9.278;2023-04-25T00:12:54;16.23;;;5.28;;
38717;SDS011;24468;52.128;9.278;2023-04-25T00:15:19;12.60;;;4.68;;
38717;SDS011;24468;52.128;9.278;2023-04-25T00:17:45;13.65;;;5.70;;
38717;SDS011;24468;52.128;9.278;2023-04-25T00:20:11;17.52;;;5.50;;
38717;SDS011;24468;52.128;9.278;2023-04-25T00:22:37;10.90;;;5.22;;
38717;SDS011;24468;52.128;9.278;2023-04-25T00:25:06;16.42;;;5.60;;
38717;SDS011;24468;52.128;9.278;2023-04-25T00:27:32;15.00;;;5.63;;
38717;SDS011;24468;52.128;9.278;2023-04-25T00:29:58;12.52;;;5.82;;
38717;SDS011;24468;52.128;9.278;2023-04-25T00:32:23;20.73;;;5.38;;
38717;SDS011;24468;52.128;9.278;2023-04-25T00:34:49;14.60;;;5.55;;
38717;SDS011;24468;52.128;9.278;2023-04-25T00:37:15;16.70;;;5.50;;
38717;SDS011;24468;52.128;9.278;2023-04-25T00:39:40;10.38;;;5.15;;
38717;SDS011;24468;52.128;9.278;2023-04-25T00:42:06;10.52;;;6.10;;
38717;SDS011;24468;52.128;9.278;2023-04-25T00:44:32;10.20;;;5.47;;
38717;SDS011;24468;52.128;9.278;2023-04-25T00:47:00;19.77;;;6.15;;
38717;SDS011;24468;52.128;9.278;2023-04-25T00:49:27;12.45;;;6.07;;
38717;SDS011;24468;52.128;9.278;2023-04-25T00:51:53;16.83;;;6.97;;
38717;SDS011;24468;52.128;9.278;2023-04-25T00:54:19;13.52;;;6.00;;
38717;SDS011;24468;52.128;9.278;2023-04-25T00:56:45;16.83;;;5.68;;
38717;SDS011;24468;52.128;9.278;2023-04-25T00:59:11;11.88;;;5.53;;
38717;SDS011;24468;52.128;9.278;2023-04-25T01:01:36;19.65;;;6.50;;
38717;SDS011;24468;52.128;9.278;2023-04-25T01:04:04;8.82;;;5.38;;
38717;SDS011;24468;52.128;9.278;2023-04-25T01:06:29;13.98;;;5.88;;
38717;SDS011;24468;52.128;9.278;2023-04-25T01:08:56;11.70;;;5.97;;
38717;SDS011;24468;52.128;9.278;2023-04-25T01:11:22;14.73;;;5.93;;
38717;SDS011;24468;52.128;9.278;2023-04-25T01:13:48;14.60;;;6.43;;
38717;SDS011;24468;52.128;9.278;2023-04-25T01:16:13;16.33;;;6.47;;
38717;SDS011;24468;52.128;9.278;2023-04-25T01:18:40;14.68;;;5.68;;
38717;SDS011;24468;52.128;9.278;2023-04-25T01:21:07;10.73;;;4.30;;
38717;SDS011;24468;52.128;9.278;2023-04-25T01:23:35;9.35;;;5.47;;
38717;SDS011;24468;52.128;9.278;2023-04-25T01:26:01;12.02;;;5.43;;
38717;SDS011;24468;52.128;9.278;2023-04-25T01:28:27;13.23;;;6.13;;
38717;SDS011;24468;52.128;9.278;2023-04-25T01:30:53;18.15;;;7.03;;
38717;SDS011;24468;52.128;9.278;2023-04-25T01:33:20;15.90;;;8.48;;
38717;SDS011;24468;52.128;9.278;2023-04-25T01:35:46;17.58;;;7.28;;
38717;SDS011;24468;52.128;9.278;2023-04-25T01:38:12;10.13;;;6.20;;
38717;SDS011;24468;52.128;9.278;2023-04-25T01:40:39;15.98;;;5.97;;
38717;SDS011;24468;52.128;9.278;2023-04-25T01:43:06;11.70;;;5.90;;
38717;SDS011;24468;52.128;9.278;2023-04-25T01:45:35;14.68;;;6.03;;
38717;SDS011;24468;52.128;9.278;2023-04-25T01:48:06;11.60;;;5.88;;
38717;SDS011;24468;52.128;9.278;2023-04-25T01:50:37;13.60;;;5.57;;
38717;SDS011;24468;52.128;9.278;2023-04-25T01:53:03;15.45;;;5.68;;
38717;SDS011;24468;52.128;9.278;2023-04-25T01:55:30;11.93;;;6.15;;
38717;SDS011;24468;52.128;9.278;2023-04-25T01:57:56;11.45;;;6.22;;
38717;SDS011;24468;52.128;9.278;2023-04-25T02:00:21;11.18;;;5.40;;
38717;SDS011;24468;52.128;9.278;2023-04-25T02:02:47;10.57;;;5.32;;
38717;SDS011;24468;52.128;9.278;2023-04-25T02:05:15;17.63;;;6.05;;
38717;SDS011;24468;52.128;9.278;2023-04-25T02:07:41;14.13;;;6.68;;
38717;SDS011;24468;52.128;9.278;2023-04-25T02:10:07;12.52;;;5.10;;
38717;SDS011;24468;52.128;9.278;2023-04-25T02:12:34;13.50;;;5.55;;
38717;SDS011;24468;52.128;9.278;2023-04-25T02:15:00;12.93;;;5.78;;
38717;SDS011;24468;52.128;9.278;2023-04-25T02:17:26;9.98;;;4.90;;
38717;SDS011;24468;52.128;9.278;2023-04-25T02:19:52;10.43;;;4.65;;
38717;SDS011;24468;52.128;9.278;2023-04-25T02:22:17;7.28;;;4.72;;
38717;SDS011;24468;52.128;9.278;2023-04-25T02:24:43;7.90;;;5.00;;
38717;SDS011;24468;52.128;9.278;2023-04-25T02:27:08;21.70;;;8.45;;
38717;SDS011;24468;52.128;9.278;2023-04-25T02:29:34;15.52;;;6.50;;
38717;SDS011;24468;52.128;9.278;2023-04-25T02:31:59;8.00;;;4.93;;
38717;SDS011;24468;52.128;9.278;2023-04-25T02:34:25;7.10;;;4.30;;
38717;SDS011;24468;52.128;9.278;2023-04-25T02:36:51;7.05;;;3.75;;
38717;SDS011;24468;52.128;9.278;2023-04-25T02:39:16;15.10;;;4.57;;
38717;SDS011;24468;52.128;9.278;2023-04-25T02:41:42;17.27;;;5.13;;
38717;SDS011;24468;52.128;9.278;2023-04-25T02:44:08;13.88;;;4.03;;
38717;SDS011;24468;52.128;9.278;2023-04-25T02:46:33;12.10;;;3.75;;
38717;SDS011;24468;52.128;9.278;2023-04-25T02:48:59;14.13;;;3.78;;
38717;SDS011;24468;52.128;9.278;2023-04-25T02:51:24;10.88;;;3.85;;
38717;SDS011;24468;52.128;9.278;2023-04-25T02:53:51;12.73;;;3.97;;
38717;SDS011;24468;52.128;9.278;2023-04-25T02:56:16;10.90;;;3.53;;
38717;SDS011;24468;52.128;9.278;2023-04-25T02:58:42;11.65;;;4.22;;
38717;SDS011;24468;52.128;9.278;2023-04-25T03:01:07;10.02;;;3.45;;
38717;SDS011;24468;52.128;9.278;2023-04-25T03:03:33;10.70;;;3.95;;
38717;SDS011;24468;52.128;9.278;2023-04-25T03:05:58;17.17;;;4.30;;
38717;SDS011;24468;52.128;9.278;2023-04-25T03:08:24;19.50;;;4.00;;
38717;SDS011;24468;52.128;9.278;2023-04-25T03:10:51;13.30;;;4.13;;
38717;SDS011;24468;52.128;9.278;2023-04-25T03:13:20;12.85;;;3.50;;
38717;SDS011;24468;52.128;9.278;2023-04-25T03:15:45;12.25;;;3.92;;
38717;SDS011;24468;52.128;9.278;2023-04-25T03:18:11;24.48;;;3.70;;
38717;SDS011;24468;52.128;9.278;2023-04-25T03:20:36;14.82;;;4.47;;
38717;SDS011;24468;52.128;9.278;2023-04-25T03:23:04;14.98;;;4.47;;
38717;SDS011;24468;52.128;9.278;2023-04-25T03:25:29;12.20;;;4.57;;
38717;SDS011;24468;52.128;9.278;2023-04-25T03:27:55;17.27;;;3.85;;
38717;SDS011;24468;52.128;9.278;2023-04-25T03:30:20;17.10;;;4.88;;
38717;SDS011;24468;52.128;9.278;2023-04-25T03:32:46;14.32;;;3.97;;
38717;SDS011;24468;52.128;9.278;2023-04-25T03:35:11;18.95;;;4.65;;
38717;SDS011;24468;52.128;9.278;2023-04-25T03:37:37;11.77;;;3.72;;
38717;SDS011;24468;52.128;9.278;2023-04-25T03:40:03;12.98;;;3.63;;
38717;SDS011;24468;52.128;9.278;2023-04-25T03:42:29;14.30;;;3.97;;
38717;SDS011;24468;52.128;9.278;2023-04-25T03:44:54;16.13;;;4.40;;
38717;SDS011;24468;52.128;9.278;2023-04-25T03:47:20;12.82;;;4.07;;
38717;SDS011;24468;52.128;9.278;2023-04-25T03:49:45;13.10;;;3.63;;
38717;SDS011;24468;52.128;9.278;2023-04-25T03:52:11;18.65;;;3.92;;
38717;SDS011;24468;52.128;9.278;2023-04-25T03:54:37;16.52;;;3.80;;
38717;SDS011;24468;52.128;9.278;2023-04-25T03:57:02;16.77;;;4.32;;
38717;SDS011;24468;52.128;9.278;2023-04-25T03:59:28;10.05;;;3.85;;
38717;SDS011;24468;52.128;9.278;2023-04-25T04:01:53;14.52;;;3.90;;
38717;SDS011;24468;52.128;9.278;2023-04-25T04:04:19;19.80;;;5.28;;
38717;SDS011;24468;52.128;9.278;2023-04-25T04:06:45;21.38;;;4.53;;
38717;SDS011;24468;52.128;9.278;2023-04-25T04:09:10;17.67;;;5.03;;
38717;SDS011;24468;52.128;9.278;2023-04-25T04:11:37;16.75;;;4.22;;
38717;SDS011;24468;52.128;9.278;2023-04-25T04:14:07;17.83;;;4.60;;
38717;SDS011;24468;52.128;9.278;2023-04-25T04:16:33;15.98;;;4.20;;
38717;SDS011;24468;52.128;9.278;2023-04-25T04:18:58;16.45;;;4.57;;
38717;SDS011;24468;52.128;9.278;2023-04-25T04:21:24;18.13;;;3.85;;
38717;SDS011;24468;52.128;9.278;2023-04-25T04:23:51;21.42;;;4.25;;
38717;SDS011;24468;52.128;9.278;2023-04-25T04:26:17;20.13;;;5.07;;
38717;SDS011;24468;52.128;9.278;2023-04-25T04:28:43;17.20;;;4.05;;
38717;SDS011;24468;52.128;9.278;2023-04-25T04:31:11;19.88;;;4.57;;
38717;SDS011;24468;52.128;9.278;2023-04-25T04:33:37;18.35;;;4.32;;
38717;SDS011;24468;52.128;9.278;2023-04-25T04:36:03;18.90;;;4.47;;
38717;SDS011;24468;52.128;9.278;2023-04-25T04:38:29;11.85;;;3.63;;
38717;SDS011;24468;52.128;9.278;2023-04-25T04:40:55;16.23;;;3.47;;
38717;SDS011;24468;52.128;9.278;2023-04-25T04:43:21;13.63;;;3.90;;
38717;SDS011;24468;52.128;9.278;2023-04-25T04:45:47;16.63;;;4.00;;
38717;SDS011;24468;52.128;9.278;2023-04-25T04:48:14;17.38;;;4.07;;
38717;SDS011;24468;52.128;9.278;2023-04-25T04:50:40;21.27;;;4.03;;
38717;SDS011;24468;52.128;9.278;2023-04-25T04:53:10;16.27;;;4.28;;
38717;SDS011;24468;52.128;9.278;2023-04-25T04:55:36;20.95;;;4.90;;
38717;SDS011;24468;52.128;9.278;2023-04-25T04:58:02;11.98;;;3.45;;
38717;SDS011;24468;52.128;9.278;2023-04-25T05:00:27;14.32;;;3.92;;
38717;SDS011;24468;52.128;9.278;2023-04-25T05:02:54;12.48;;;4.95;;
38717;SDS011;24468;52.128;9.278;2023-04-25T05:05:21;18.58;;;4.40;;
38717;SDS011;24468;52.128;9.278;2023-04-25T05:07:47;16.67;;;4.00;;
38717;SDS011;24468;52.128;9.278;2023-04-25T05:10:12;22.83;;;5.28;;
38717;SDS011;24468;52.128;9.278;2023-04-25T05:12:38;19.77;;;4.47;;
38717;SDS011;24468;52.128;9.278;2023-04-25T05:15:03;17.88;;;3.95;;
38717;SDS011;24468;52.128;9.278;2023-04-25T05:17:29;21.83;;;4.15;;
38717;SDS011;24468;52.128;9.278;2023-04-25T05:19:55;17.95;;;3.22;;
38717;SDS011;24468;52.128;9.278;2023-04-25T05:22:21;14.25;;;3.42;;
38717;SDS011;24468;52.128;9.278;2023-04-25T05:24:47;18.23;;;3.42;;
38717;SDS011;24468;52.128;9.278;2023-04-25T05:27:13;12.73;;;4.28;;
38717;SDS011;24468;52.128;9.278;2023-04-25T05:29:42;19.70;;;3.45;;
38717;SDS011;24468;52.128;9.278;2023-04-25T05:32:08;14.10;;;3.17;;
38717;SDS011;24468;52.128;9.278;2023-04-25T05:34:34;16.67;;;4.75;;
38717;SDS011;24468;52.128;9.278;2023-04-25T05:36:59;11.85;;;3.78;;
38717;SDS011;24468;52.128;9.278;2023-04-25T05:39:25;13.90;;;4.22;;
38717;SDS011;24468;52.128;9.278;2023-04-25T05:41:51;18.92;;;5.32;;
38717;SDS011;24468;52.128;9.278;2023-04-25T05:44:17;15.45;;;4.00;;
38717;SDS011;24468;52.128;9.278;2023-04-25T05:46:42;18.75;;;3.72;;
38717;SDS011;24468;52.128;9.278;2023-04-25T05:49:08;12.85;;;3.40;;
38717;SDS011;24468;52.128;9.278;2023-04-25T05:51:34;14.93;;;3.72;;
38717;SDS011;24468;52.128;9.278;2023-04-25T05:53:59;19.48;;;3.90;;
38717;SDS011;24468;52.128;9.278;2023-04-25T05:56:25;16.58;;;3.38;;
38717;SDS011;24468;52.128;9.278;2023-04-25T05:58:50;14.20;;;3.85;;
38717;SDS011;24468;52.128;9.278;2023-04-25T06:01:16;14.15;;;6.05;;
38717;SDS011;24468;52.128;9.278;2023-04-25T06:03:41;12.90;;;3.15;;
38717;SDS011;24468;52.128;9.278;2023-04-25T06:06:08;19.67;;;3.95;;
38717;SDS011;24468;52.128;9.278;2023-04-25T06:08:34;13.30;;;4.10;;
38717;SDS011;24468;52.128;9.278;2023-04-25T06:11:00;11.57;;;3.17;;
38717;SDS011;24468;52.128;9.278;2023-04-25T06:13:25;18.10;;;3.88;;
38717;SDS011;24468;52.128;9.278;2023-04-25T06:15:51;15.50;;;3.42;;
38717;SDS011;24468;52.128;9.278;2023-04-25T06:18:17;12.00;;;3.22;;
38717;SDS011;24468;52.128;9.278;2023-04-25T06:20:42;16.67;;;3.60;;
38717;SDS011;24468;52.128;9.278;2023-04-25T06:23:08;15.43;;;4.40;;
38717;SDS011;24468;52.128;9.278;2023-04-25T06:25:33;19.98;;;3.80;;
38717;SDS011;24468;52.128;9.278;2023-04-25T06:27:59;14.07;;;4.05;;
38717;SDS011;24468;52.128;9.278;2023-04-25T06:30:24;17.48;;;3.72;;
38717;SDS011;24468;52.128;9.278;2023-04-25T06:32:51;16.67;;;3.75;;
38717;SDS011;24468;52.128;9.278;2023-04-25T06:35:18;8.23;;;3.33;;
38717;SDS011;24468;52.128;9.278;2023-04-25T06:37:44;13.60;;;4.50;;
38717;SDS011;24468;52.128;9.278;2023-04-25T06:40:10;15.93;;;4.25;;
38717;SDS011;24468;52.128;9.278;2023-04-25T06:42:36;12.75;;;2.75;;
38717;SDS011;24468;52.128;9.278;2023-04-25T06:45:01;17.52;;;3.67;;
38717;SDS011;24468;52.128;9.278;2023-04-25T06:47:28;15.75;;;3.72;;
38717;SDS011;24468;52.128;9.278;2023-04-25T06:49:54;14.07;;;3.28;;
38717;SDS011;24468;52.128;9.278;2023-04-25T06:52:20;15.00;;;3.53;;
38717;SDS011;24468;52.128;9.278;2023-04-25T06:54:46;10.38;;;3.42;;
38717;SDS011;24468;52.128;9.278;2023-04-25T06:57:11;12.98;;;3.47;;
38717;SDS011;24468;52.128;9.278;2023-04-25T06:59:37;14.38;;;3.65;;
38717;SDS011;24468;52.128;9.278;2023-04-25T07:02:03;10.93;;;2.95;;
38717;SDS011;24468;52.128;9.278;2023-04-25T07:04:29;11.68;;;2.78;;
38717;SDS011;24468;52.128;9.278;2023-04-25T07:06:55;13.00;;;2.92;;
38717;SDS011;24468;52.128;9.278;2023-04-25T07:09:21;12.70;;;2.80;;
38717;SDS011;24468;52.128;9.278;2023-04-25T07:11:47;12.75;;;3.00;;
38717;SDS011;24468;52.128;9.278;2023-04-25T07:14:12;13.85;;;3.13;;
38717;SDS011;24468;52.128;9.278;2023-04-25T07:16:38;15.65;;;2.97;;
38717;SDS011;24468;52.128;9.278;2023-04-25T07:19:03;13.07;;;3.03;;
38717;SDS011;24468;52.128;9.278;2023-04-25T07:21:29;21.48;;;2.90;;
38717;SDS011;24468;52.128;9.278;2023-04-25T07:23:55;14.80;;;2.30;;
38717;SDS011;24468;52.128;9.278;2023-04-25T07:26:21;16.67;;;3.17;;
38717;SDS011;24468;52.128;9.278;2023-04-25T07:28:46;14.95;;;3.03;;
38717;SDS011;24468;52.128;9.278;2023-04-25T07:31:15;14.20;;;2.58;;
38717;SDS011;24468;52.128;9.278;2023-04-25T07:33:43;14.80;;;3.42;;
38717;SDS011;24468;52.128;9.278;2023-04-25T07:36:10;10.13;;;2.50;;
38717;SDS011;24468;52.128;9.278;2023-04-25T07:38:35;12.23;;;2.85;;
38717;SDS011;24468;52.128;9.278;2023-04-25T07:41:01;7.38;;;2.53;;
38717;SDS011;24468;52.128;9.278;2023-04-25T07:43:27;7.65;;;3.72;;
38717;SDS011;24468;52.128;9.278;2023-04-25T07:45:52;11.45;;;3.08;;
38717;SDS011;24468;52.128;9.278;2023-04-25T07:48:18;12.88;;;2.03;;
38717;SDS011;24468;52.128;9.278;2023-04-25T07:50:44;17.55;;;2.60;;
38717;SDS011;24468;52.128;9.278;2023-04-25T07:53:10;9.70;;;2.72;;
38717;SDS011;24468;52.128;9.278;2023-04-25T07:55:36;9.50;;;2.63;;
38717;SDS011;24468;52.128;9.278;2023-04-25T07:58:04;11.35;;;2.83;;
38717;SDS011;24468;52.128;9.278;2023-04-25T08:00:33;8.70;;;2.13;;
38717;SDS011;24468;52.128;9.278;2023-04-25T08:02:59;12.77;;;2.60;;
38717;SDS011;24468;52.128;9.278;2023-04-25T08:05:25;10.55;;;2.28;;
38717;SDS011;24468;52.128;9.278;2023-04-25T08:07:50;8.73;;;2.35;;
38717;SDS011;24468;52.128;9.278;2023-04-25T08:10:16;9.02;;;2.00;;
38717;SDS011;24468;52.128;9.278;2023-04-25T08:12:42;9.90;;;2.70;;
38717;SDS011;24468;52.128;9.278;2023-04-25T08:15:07;8.82;;;1.83;;
38717;SDS011;24468;52.128;9.278;2023-04-25T08:17:34;8.60;;;2.17;;
38717;SDS011;24468;52.128;9.278;2023-04-25T08:20:00;9.75;;;2.15;;
38717;SDS011;24468;52.128;9.278;2023-04-25T08:22:26;8.07;;;1.65;;
38717;SDS011;24468;52.128;9.278;2023-04-25T08:24:51;9.77;;;2.53;;
38717;SDS011;24468;52.128;9.278;2023-04-25T08:27:17;6.97;;;2.22;;
38717;SDS011;24468;52.128;9.278;2023-04-25T08:29:43;9.75;;;1.83;;
38717;SDS011;24468;52.128;9.278;2023-04-25T08:32:09;10.10;;;2.08;;
38717;SDS011;24468;52.128;9.278;2023-04-25T08:34:34;10.43;;;2.17;;
38717;SDS011;24468;52.128;9.278;2023-04-25T08:37:01;13.13;;;2.63;;
38717;SDS011;24468;52.128;9.278;2023-04-25T08:39:29;13.48;;;1.85;;
38717;SDS011;24468;52.128;9.278;2023-04-25T08:41:54;11.60;;;2.88;;
38717;SDS011;24468;52.128;9.278;2023-04-25T08:44:21;6.43;;;2.53;;
38717;SDS011;24468;52.128;9.278;2023-04-25T08:46:48;16.02;;;2.53;;
38717;SDS011;24468;52.128;9.278;2023-04-25T08:49:15;9.82;;;2.40;;
38717;SDS011;24468;52.128;9.278;2023-04-25T08:51:46;9.52;;;2.38;;
38717;SDS011;24468;52.128;9.278;2023-04-25T08:54:13;5.05;;;2.20;;
38717;SDS011;24468;52.128;9.278;2023-04-25T08:56:44;6.03;;;1.75;;
38717;SDS011;24468;52.128;9.278;2023-04-25T08:59:12;6.95;;;1.80;;
38717;SDS011;24468;52.128;9.278;2023-04-25T09:01:38;7.15;;;1.98;;
38717;SDS011;24468;52.128;9.278;2023-04-25T09:04:04;5.38;;;2.30;;
38717;SDS011;24468;52.128;9.278;2023-04-25T09:06:30;7.65;;;2.33;;
38717;SDS011;24468;52.128;9.278;2023-04-25T09:09:03;7.22;;;2.05;;
38717;SDS011;24468;52.128;9.278;2023-04-25T09:11:34;4.47;;;1.88;;
38717;SDS011;24468;52.128;9.278;2023-04-25T09:14:11;6.68;;;2.03;;
38717;SDS011;24468;52.128;9.278;2023-04-25T09:21:50;6.78;;;2.03;;
38717;SDS011;24468;52.128;9.278;2023-04-25T09:24:37;9.60;;;3.03;;
38717;SDS011;24468;52.128;9.278;2023-04-25T09:27:04;11.50;;;2.38;;
38717;SDS011;24468;52.128;9.278;2023-04-25T09:29:32;11.02;;;2.72;;
38717;SDS011;24468;52.128;9.278;2023-04-25T09:32:19;8.38;;;2.28;;
38717;SDS011;24468;52.128;9.278;2023-04-25T09:34:50;7.88;;;2.17;;
38717;SDS011;24468;52.128;9.278;2023-04-25T09:37:26;4.90;;;1.73;;
38717;SDS011;24468;52.128;9.278;2023-04-25T09:39:54;7.78;;;1.92;;
38717;SDS011;24468;52.128;9.278;2023-04-25T09:42:24;4.60;;;1.50;;
38717;SDS011;24468;52.128;9.278;2023-04-25T09:44:52;7.40;;;2.20;;
38717;SDS011;24468;52.128;9.278;2023-04-25T09:47:19;5.78;;;1.27;;
38717;SDS011;24468;52.128;9.278;2023-04-25T09:49:47;5.10;;;1.70;;
38717;SDS011;24468;52.128;9.278;2023-04-25T09:52:13;6.05;;;1.45;;
38717;SDS011;24468;52.128;9.278;2023-04-25T09:54:41;4.78;;;1.35;;
38717;SDS011;24468;52.128;9.278;2023-04-25T09:57:11;6.80;;;1.65;;
38717;SDS011;24468;52.128;9.278;2023-04-25T09:59:45;5.60;;;1.58;;
38717;SDS011;24468;52.128;9.278;2023-04-25T10:02:13;8.57;;;1.50;;
38717;SDS011;24468;52.128;9.278;2023-04-25T10:04:42;7.15;;;1.58;;
38717;SDS011;24468;52.128;9.278;2023-04-25T10:07:12;5.25;;;1.92;;
38717;SDS011;24468;52.128;9.278;2023-04-25T10:09:39;6.88;;;1.45;;
38717;SDS011;24468;52.128;9.278;2023-04-25T10:12:06;4.25;;;1.33;;
38717;SDS011;24468;52.128;9.278;2023-04-25T10:14:32;6.22;;;1.60;;
38717;SDS011;24468;52.128;9.278;2023-04-25T10:16:59;7.05;;;1.58;;
38717;SDS011;24468;52.128;9.278;2023-04-25T10:19:26;6.03;;;1.60;;
38717;SDS011;24468;52.128;9.278;2023-04-25T10:21:54;9.98;;;1.58;;
38717;SDS011;24468;52.128;9.278;2023-04-25T10:24:34;3.97;;;1.47;;
38717;SDS011;24468;52.128;9.278;2023-04-25T10:27:01;4.75;;;1.98;;
38717;SDS011;24468;52.128;9.278;2023-04-25T10:29:28;4.82;;;1.20;;
38717;SDS011;24468;52.128;9.278;2023-04-25T10:31:53;7.60;;;1.58;;
38717;SDS011;24468;52.128;9.278;2023-04-25T10:34:23;5.00;;;1.38;;
38717;SDS011;24468;52.128;9.278;2023-04-25T10:37:03;5.88;;;1.33;;
38717;SDS011;24468;52.128;9.278;2023-04-25T10:39:29;3.50;;;1.02;;
38717;SDS011;24468;52.128;9.278;2023-04-25T10:41:55;6.47;;;1.55;;
38717;SDS011;24468;52.128;9.278;2023-04-25T10:44:25;3.78;;;1.60;;
38717;SDS011;24468;52.128;9.278;2023-04-25T10:46:54;5.07;;;0.88;;
38717;SDS011;24468;52.128;9.278;2023-04-25T10:49:55;3.08;;;1.30;;
38717;SDS011;24468;52.128;9.278;2023-04-25T10:52:25;4.90;;;1.50;;
38717;SDS011;24468;52.128;9.278;2023-04-25T10:54:54;3.50;;;0.93;;
38717;SDS011;24468;52.128;9.278;2023-04-25T11:00:08;5.97;;;1.30;;
38717;SDS011;24468;52.128;9.278;2023-04-25T11:02:42;4.32;;;1.25;;
38717;SDS011;24468;52.128;9.278;2023-04-25T11:05:09;6.35;;;1.40;;
38717;SDS011;24468;52.128;9.278;2023-04-25T11:07:47;7.85;;;1.30;;
38717;SDS011;24468;52.128;9.278;2023-04-25T11:10:17;2.25;;;0.80;;
38717;SDS011;24468;52.128;9.278;2023-04-25T11:12:44;2.00;;;0.80;;
38717;SDS011;24468;52.128;9.278;2023-04-25T11:15:11;6.63;;;2.08;;
38717;SDS011;24468;52.128;9.278;2023-04-25T11:17:37;4.82;;;1.10;;
38717;SDS011;24468;52.128;9.278;2023-04-25T11:20:05;5.50;;;0.90;;
38717;SDS011;24468;52.128;9.278;2023-04-25T11:22:36;3.55;;;1.50;;
38717;SDS011;24468;52.128;9.278;2023-04-25T11:25:06;5.93;;;1.08;;
38717;SDS011;24468;52.128;9.278;2023-04-25T11:27:33;1.38;;;0.68;;
38717;SDS011;24468;52.128;9.278;2023-04-25T11:30:14;3.85;;;1.40;;
38717;SDS011;24468;52.128;9.278;2023-04-25T11:32:41;5.70;;;1.40;;
38717;SDS011;24468;52.128;9.278;2023-04-25T11:35:08;4.35;;;1.23;;
38717;SDS011;24468;52.128;9.278;2023-04-25T11:37:34;4.97;;;1.17;;
38717;SDS011;24468;52.128;9.278;2023-04-25T11:40:01;6.18;;;1.05;;
38717;SDS011;24468;52.128;9.278;2023-04-25T11:42:28;2.88;;;1.15;;
38717;SDS011;24468;52.128;9.278;2023-04-25T11:44:55;7.35;;;1.58;;
38717;SDS011;24468;52.128;9.278;2023-04-25T11:47:20;5.65;;;1.50;;
38717;SDS011;24468;52.128;9.278;2023-04-25T11:49:53;3.28;;;1.35;;
38717;SDS011;24468;52.128;9.278;2023-04-25T11:52:19;4.47;;;1.27;;
38717;SDS011;24468;52.128;9.278;2023-04-25T11:54:44;3.15;;;1.17;;
38717;SDS011;24468;52.128;9.278;2023-04-25T11:57:10;3.05;;;0.60;;
38717;SDS011;24468;52.128;9.278;2023-04-25T11:59:36;3.33;;;1.15;;
38717;SDS011;24468;52.128;9.278;2023-04-25T12:02:02;5.50;;;1.73;;
38717;SDS011;24468;52.128;9.278;2023-04-25T12:04:29;3.65;;;1.00;;
38717;SDS011;24468;52.128;9.278;2023-04-25T12:06:56;5.93;;;0.85;;
38717;SDS011;24468;52.128;9.278;2023-04-25T12:09:32;3.50;;;0.80;;
38717;SDS011;24468;52.128;9.278;2023-04-25T12:11:59;4.75;;;1.50;;
38717;SDS011;24468;52.128;9.278;2023-04-25T12:14:29;3.42;;;0.95;;
38717;SDS011;24468;52.128;9.278;2023-04-25T12:17:00;5.03;;;1.40;;
38717;SDS011;24468;52.128;9.278;2023-04-25T12:19:32;2.13;;;0.98;;
38717;SDS011;24468;52.128;9.278;2023-04-25T12:22:02;3.75;;;1.10;;
38717;SDS011;24468;52.128;9.278;2023-04-25T12:24:44;3.25;;;0.85;;
38717;SDS011;24468;52.128;9.278;2023-04-25T12:27:10;2.70;;;0.88;;
38717;SDS011;24468;52.128;9.278;2023-04-25T12:29:35;4.25;;;0.73;;
38717;SDS011;24468;52.128;9.278;2023-04-25T12:32:01;2.50;;;0.73;;
38717;SDS011;24468;52.128;9.278;2023-04-25T12:34:27;6.22;;;1.10;;
38717;SDS011;24468;52.128;9.278;2023-04-25T12:36:52;2.63;;;0.75;;
38717;SDS011;24468;52.128;9.278;2023-04-25T12:39:19;5.25;;;1.40;;
38717;SDS011;24468;52.128;9.278;2023-04-25T12:41:48;1.83;;;0.85;;
38717;SDS011;24468;52.128;9.278;2023-04-25T12:44:19;2.13;;;0.60;;
38717;SDS011;24468;52.128;9.278;2023-04-25T12:46:46;2.22;;;0.75;;
38717;SDS011;24468;52.128;9.278;2023-04-25T12:49:12;2.47;;;0.90;;
38717;SDS011;24468;52.128;9.278;2023-04-25T12:51:38;2.15;;;1.00;;
38717;SDS011;24468;52.128;9.278;2023-04-25T12:54:04;3.83;;;0.82;;
38717;SDS011;24468;52.128;9.278;2023-04-25T12:56:33;3.25;;;1.02;;
38717;SDS011;24468;52.128;9.278;2023-04-25T12:59:00;3.92;;;1.10;;
38717;SDS011;24468;52.128;9.278;2023-04-25T13:01:25;5.22;;;0.95;;
38717;SDS011;24468;52.128;9.278;2023-04-25T13:03:51;6.70;;;1.23;;
38717;SDS011;24468;52.128;9.278;2023-04-25T13:06:18;1.10;;;0.47;;
38717;SDS011;24468;52.128;9.278;2023-04-25T13:08:45;2.67;;;0.70;;
38717;SDS011;24468;52.128;9.278;2023-04-25T13:11:11;2.50;;;0.70;;
38717;SDS011;24468;52.128;9.278;2023-04-25T13:13:37;2.25;;;0.65;;
38717;SDS011;24468;52.128;9.278;2023-04-25T13:16:03;3.42;;;1.05;;
38717;SDS011;24468;52.128;9.278;2023-04-25T13:18:30;3.80;;;0.90;;
38717;SDS011;24468;52.128;9.278;2023-04-25T13:20:56;4.00;;;0.98;;
38717;SDS011;24468;52.128;9.278;2023-04-25T13:23:25;2.13;;;0.50;;
38717;SDS011;24468;52.128;9.278;2023-04-25T13:25:53;3.00;;;0.63;;
38717;SDS011;24468;52.128;9.278;2023-04-25T13:28:20;3.85;;;0.65;;
38717;SDS011;24468;52.128;9.278;2023-04-25T13:30:46;2.80;;;0.80;;
38717;SDS011;24468;52.128;9.278;2023-04-25T13:33:13;5.32;;;1.30;;
38717;SDS011;24468;52.128;9.278;2023-04-25T13:35:39;2.70;;;0.60;;
38717;SDS011;24468;52.128;9.278;2023-04-25T13:38:06;5.07;;;1.02;;
38717;SDS011;24468;52.128;9.278;2023-04-25T13:40:31;2.70;;;0.70;;
38717;SDS011;24468;52.128;9.278;2023-04-25T13:42:57;1.77;;;0.68;;
38717;SDS011;24468;52.128;9.278;2023-04-25T13:45:23;1.83;;;0.80;;
38717;SDS011;24468;52.128;9.278;2023-04-25T13:47:48;5.03;;;0.80;;
38717;SDS011;24468;52.128;9.278;2023-04-25T13:50:14;2.80;;;0.73;;
38717;SDS011;24468;52.128;9.278;2023-04-25T13:52:41;2.97;;;0.75;;
38717;SDS011;24468;52.128;9.278;2023-04-25T13:55:07;2.20;;;1.10;;
38717;SDS011;24468;52.128;9.278;2023-04-25T13:57:34;2.03;;;0.80;;
38717;SDS011;24468;52.128;9.278;2023-04-25T14:00:01;2.45;;;0.70;;
38717;SDS011;24468;52.128;9.278;2023-04-25T14:02:33;3.22;;;1.50;;
38717;SDS011;24468;52.128;9.278;2023-04-25T14:04:59;3.50;;;0.60;;
38717;SDS011;24468;52.128;9.278;2023-04-25T14:07:25;5.18;;;1.08;;
38717;SDS011;24468;52.128;9.278;2023-04-25T14:09:51;2.25;;;0.77;;
38717;SDS011;24468;52.128;9.278;2023-04-25T14:12:17;2.55;;;0.63;;
38717;SDS011;24468;52.128;9.278;2023-04-25T14:14:42;3.28;;;0.85;;
38717;SDS011;24468;52.128;9.278;2023-04-25T14:17:08;3.47;;;0.80;;
38717;SDS011;24468;52.128;9.278;2023-04-25T14:19:34;2.00;;;0.57;;
38717;SDS011;24468;52.128;9.278;2023-04-25T14:21:59;2.33;;;1.00;;
38717;SDS011;24468;52.128;9.278;2023-04-25T14:24:25;2.88;;;1.42;;
38717;SDS011;24468;52.128;9.278;2023-04-25T14:26:51;4.70;;;1.15;;
38717;SDS011;24468;52.128;9.278;2023-04-25T14:29:16;5.50;;;1.23;;
38717;SDS011;24468;52.128;9.278;2023-04-25T14:31:42;2.15;;;0.70;;
38717;SDS011;24468;52.128;9.278;2023-04-25T14:34:07;3.08;;;1.35;;
38717;SDS011;24468;52.128;9.278;2023-04-25T14:36:33;4.93;;;0.98;;
38717;SDS011;24468;52.128;9.278;2023-04-25T14:39:00;3.22;;;0.93;;
38717;SDS011;24468;52.128;9.278;2023-04-25T14:41:27;8.88;;;1.05;;
38717;SDS011;24468;52.128;9.278;2023-04-25T14:43:52;5.63;;;1.55;;
38717;SDS011;24468;52.128;9.278;2023-04-25T14:46:18;4.70;;;1.50;;